Time;durP1;ratioP1;P1;durP2;ratioP2;P2;SDS_P1;SDS_P2;PMS_P1;PMS_P2;Temp;Humidity;BMP_temperature;BMP_pressure;BME280_temperature;BME280_humidity;BME280_pressure;Samples;Min_cycle;Max_cycle;Signal;HPM_P1;HPM_P2
2021/09/24 00:02:14;;;;;;;;;;;14.70;99.90;;;;;;5075823;28;19924;-87
2021/09/24 00:04:42;;;;;;;;;;;14.70;99.90;;;;;;5075650;28;19930;-87
2021/09/24 00:07:10;;;;;;;;;;;14.60;99.90;;;;;;5075663;28;19929;-87
2021/09/24 00:09:51;;;;;;;;;;;14.60;99.90;;;;;;5075594;28;19928;-88
2021/09/24 00:12:22;;;;;;;;;;;14.60;99.90;;;;;;5058363;28;19924;-87
2021/09/24 00:14:50;;;;;;;;;;;14.60;99.90;;;;;;5075662;28;20031;-87
2021/09/24 00:17:21;;;;;;;;;;;14.60;99.90;;;;;;5075325;28;19924;-87
2021/09/24 00:19:49;;;;;;;;;;;14.60;99.90;;;;;;5075611;28;20366;-87
2021/09/24 00:22:18;;;;;;;;;;;14.60;99.90;;;;;;5075309;28;19928;-87
2021/09/24 00:25:01;;;;;;;;;;;14.50;99.90;;;;;;5075096;28;19935;-87
2021/09/24 00:27:29;;;;;;;;;;;14.50;99.90;;;;;;5075153;28;20295;-87
2021/09/24 00:30:00;;;;;;;;;;;14.50;99.90;;;;;;5075373;28;20040;-87
2021/09/24 00:32:28;;;;;;;;;;;14.50;99.90;;;;;;5075569;28;19939;-87
2021/09/24 00:34:56;;;;;;;;;;;14.50;99.90;;;;;;5075264;28;19924;-87
2021/09/24 00:37:24;;;;;;;;;;;14.50;99.90;;;;;;5075295;28;19929;-87
2021/09/24 00:39:54;;;;;;;;;;;14.50;99.90;;;;;;5075423;28;19931;-88
2021/09/24 00:42:22;;;;;;;;;;;14.50;99.90;;;;;;5075423;28;19924;-87
2021/09/24 00:44:50;;;;;;;;;;;14.50;99.90;;;;;;5075563;28;19925;-87
2021/09/24 00:47:19;;;;;;;;;;;14.40;99.90;;;;;;5075127;28;19925;-88
2021/09/24 00:49:46;;;;;;;;;;;14.40;99.90;;;;;;5075124;28;19924;-87
2021/09/24 00:52:13;;;;;;;;;;;14.30;99.90;;;;;;5075510;28;19951;-88
2021/09/24 00:54:39;;;;;;;;;;;14.30;99.90;;;;;;5075257;28;19924;-88
2021/09/24 00:57:08;;;;;;;;;;;14.20;99.90;;;;;;5075260;28;19955;-88
2021/09/24 00:59:35;;;;;;;;;;;14.10;99.90;;;;;;5075016;28;20253;-88
2021/09/24 01:02:01;;;;;;;;;;;14.10;99.90;;;;;;5074480;28;19925;-88
2021/09/24 01:04:28;;;;;;;;;;;14.00;99.90;;;;;;5075076;28;19924;-89
2021/09/24 01:06:55;;;;;;;;;;;14.00;99.90;;;;;;5075294;28;20030;-88
2021/09/24 01:09:22;;;;;;;;;;;13.90;99.90;;;;;;5074977;28;19924;-89
2021/09/24 01:11:51;;;;;;;;;;;13.80;99.90;;;;;;5075028;28;19924;-88
2021/09/24 01:14:19;;;;;;;;;;;13.80;99.90;;;;;;5075146;28;20344;-89
2021/09/24 01:16:46;;;;;;;;;;;13.70;99.90;;;;;;5075148;28;20085;-88
2021/09/24 01:19:13;;;;;;;;;;;13.70;99.90;;;;;;5075025;28;19930;-88
2021/09/24 01:21:42;;;;;;;;;;;13.60;99.90;;;;;;5074933;28;19924;-88
2021/09/24 01:24:09;;;;;;;;;;;13.60;99.90;;;;;;5074973;28;19986;-88
2021/09/24 01:26:36;;;;;;;;;;;13.50;99.90;;;;;;5074872;28;19928;-88
2021/09/24 01:29:03;;;;;;;;;;;13.50;99.90;;;;;;5074708;28;20255;-88
2021/09/24 01:31:30;;;;;;;;;;;13.50;99.90;;;;;;5074940;28;19934;-89
2021/09/24 01:33:57;;;;;;;;;;;13.40;99.90;;;;;;5075246;28;19932;-90
2021/09/24 01:36:24;;;;;;;;;;;13.40;99.90;;;;;;5075279;28;19935;-90
2021/09/24 01:38:52;;;;;;;;;;;13.40;99.90;;;;;;5078446;28;19935;-89
2021/09/24 01:41:19;;;;;;;;;;;13.30;99.90;;;;;;5078854;28;19946;-89
2021/09/24 01:43:46;;;;;;;;;;;13.30;99.90;;;;;;5078695;28;20011;-89
2021/09/24 01:46:13;;;;;;;;;;;13.20;99.90;;;;;;5078619;28;20374;-89
2021/09/24 01:48:42;;;;;;;;;;;13.20;99.90;;;;;;5078592;28;20352;-89
2021/09/24 01:51:09;;;;;;;;;;;13.20;99.90;;;;;;5078715;28;20356;-89
2021/09/24 01:53:36;;;;;;;;;;;13.20;99.90;;;;;;5078526;28;20249;-89
2021/09/24 01:56:04;;;;;;;;;;;13.20;99.90;;;;;;5078513;28;20272;-89
2021/09/24 01:58:31;;;;;;;;;;;13.10;99.90;;;;;;5078349;28;19935;-89
2021/09/24 02:00:58;;;;;;;;;;;13.00;99.90;;;;;;5078347;28;19935;-89
2021/09/24 02:03:25;;;;;;;;;;;13.00;99.90;;;;;;5078198;28;19925;-89
2021/09/24 02:05:51;;;;;;;;;;;13.00;99.90;;;;;;5078355;28;20355;-89
2021/09/24 02:08:18;;;;;;;;;;;13.00;99.90;;;;;;5078196;28;19989;-89
2021/09/24 02:10:45;;;;;;;;;;;13.00;99.90;;;;;;5078237;28;19935;-88
2021/09/24 02:13:13;;;;;;;;;;;13.00;99.90;;;;;;5078138;28;19924;-89
2021/09/24 02:15:40;;;;;;;;;;;13.00;99.90;;;;;;5078161;28;20360;-89
2021/09/24 02:18:07;;;;;;;;;;;13.10;99.90;;;;;;5078238;28;19929;-90
2021/09/24 02:20:34;;;;;;;;;;;13.10;99.90;;;;;;5078284;28;19935;-89
2021/09/24 02:23:01;;;;;;;;;;;13.00;99.90;;;;;;5078147;28;19924;-89
2021/09/24 02:25:28;;;;;;;;;;;13.10;99.90;;;;;;5077866;28;19924;-89
2021/09/24 02:27:55;;;;;;;;;;;13.10;99.90;;;;;;5077853;28;19998;-89
2021/09/24 02:30:23;;;;;;;;;;;13.20;99.90;;;;;;5077592;28;19924;-89
2021/09/24 02:32:50;;;;;;;;;;;13.20;99.90;;;;;;5077982;28;19931;-90
2021/09/24 02:35:17;;;;;;;;;;;13.20;99.90;;;;;;5077671;28;19928;-89
2021/09/24 02:37:43;;;;;;;;;;;13.20;99.90;;;;;;5077825;28;19935;-89
2021/09/24 02:40:11;;;;;;;;;;;13.30;99.90;;;;;;5077669;28;19925;-89
2021/09/24 02:42:38;;;;;;;;;;;13.30;99.90;;;;;;5077840;28;19925;-89
2021/09/24 02:45:05;;;;;;;;;;;13.30;99.90;;;;;;5077554;28;19935;-89
2021/09/24 02:47:33;;;;;;;;;;;13.30;99.90;;;;;;5077675;28;19931;-89
2021/09/24 02:50:00;;;;;;;;;;;13.30;99.90;;;;;;5076930;28;20366;-89
2021/09/24 02:52:27;;;;;;;;;;;13.30;99.90;;;;;;5077492;28;20264;-89
2021/09/24 02:54:54;;;;;;;;;;;13.30;99.90;;;;;;5077370;28;20272;-89
2021/09/24 02:57:20;;;;;;;;;;;13.30;99.90;;;;;;5077265;28;20255;-89
2021/09/24 02:59:47;;;;;;;;;;;13.40;99.90;;;;;;5077433;28;19928;-89
2021/09/24 03:02:14;;;;;;;;;;;13.30;99.90;;;;;;5077126;28;20011;-88
2021/09/24 03:04:42;;;;;;;;;;;13.40;99.90;;;;;;5077413;28;20295;-89
2021/09/24 03:07:10;;;;;;;;;;;13.40;99.90;;;;;;5077209;28;20379;-89
2021/09/24 03:09:36;;;;;;;;;;;13.40;99.90;;;;;;5077055;28;19935;-89
2021/09/24 03:12:04;;;;;;;;;;;13.40;99.90;;;;;;5077027;28;19925;-88
2021/09/24 03:14:31;;;;;;;;;;;13.40;99.90;;;;;;5077159;28;20259;-90
2021/09/24 03:16:58;;;;;;;;;;;13.40;99.90;;;;;;5076849;28;19925;-89
2021/09/24 03:19:25;;;;;;;;;;;13.40;99.90;;;;;;5076945;28;19935;-89
2021/09/24 03:21:53;;;;;;;;;;;13.30;99.90;;;;;;5076918;28;19931;-89
2021/09/24 03:24:20;;;;;;;;;;;13.30;99.90;;;;;;5076715;28;19924;-90
2021/09/24 03:26:47;;;;;;;;;;;13.30;99.90;;;;;;5076633;28;20341;-90
2021/09/24 03:29:14;;;;;;;;;;;13.20;99.90;;;;;;5077051;28;20259;-90
2021/09/24 03:31:41;;;;;;;;;;;13.10;99.90;;;;;;5076710;28;19925;-89
2021/09/24 03:34:08;;;;;;;;;;;13.10;99.90;;;;;;5076458;28;20238;-89
2021/09/24 03:36:35;;;;;;;;;;;13.00;99.90;;;;;;5076581;28;19931;-89
2021/09/24 03:39:03;;;;;;;;;;;13.00;99.90;;;;;;5076345;28;20003;-89
2021/09/24 03:41:30;;;;;;;;;;;12.90;99.90;;;;;;5076493;28;19924;-89
2021/09/24 03:43:57;;;;;;;;;;;12.90;99.90;;;;;;5076297;28;19929;-88
2021/09/24 03:46:24;;;;;;;;;;;13.00;99.90;;;;;;5076277;28;20371;-89
2021/09/24 03:48:51;;;;;;;;;;;13.00;99.90;;;;;;5076318;28;20268;-89
2021/09/24 03:51:18;;;;;;;;;;;13.00;99.90;;;;;;5076193;28;20249;-88
2021/09/24 03:53:44;;;;;;;;;;;13.00;99.90;;;;;;5076256;28;19946;-89
2021/09/24 03:56:13;;;;;;;;;;;13.00;99.90;;;;;;5076217;28;19950;-88
2021/09/24 03:58:40;;;;;;;;;;;13.00;99.90;;;;;;5075961;28;19924;-89
2021/09/24 04:01:06;;;;;;;;;;;13.00;99.90;;;;;;5074916;28;19936;-88
2021/09/24 04:03:33;;;;;;;;;;;13.00;99.90;;;;;;5075883;28;19935;-88
2021/09/24 04:06:00;;;;;;;;;;;13.00;99.90;;;;;;5075871;28;19925;-89
2021/09/24 04:08:27;;;;;;;;;;;13.00;99.90;;;;;;5075697;28;19928;-88
2021/09/24 04:10:54;;;;;;;;;;;13.10;99.90;;;;;;5075881;28;19925;-88
2021/09/24 04:13:22;;;;;;;;;;;13.10;99.90;;;;;;5075686;28;19943;-89
2021/09/24 04:15:49;;;;;;;;;;;13.00;99.90;;;;;;5075693;28;19925;-88
2021/09/24 04:18:16;;;;;;;;;;;13.00;99.90;;;;;;5075539;28;19931;-89
2021/09/24 04:20:43;;;;;;;;;;;13.10;99.90;;;;;;5075662;28;19925;-88
2021/09/24 04:23:09;;;;;;;;;;;13.00;99.90;;;;;;5075729;28;19935;-88
2021/09/24 04:25:36;;;;;;;;;;;13.10;99.90;;;;;;5075495;28;20248;-88
2021/09/24 04:28:03;;;;;;;;;;;13.10;99.90;;;;;;5075486;28;19925;-88
2021/09/24 04:30:31;;;;;;;;;;;13.10;99.90;;;;;;5075283;28;19925;-89
2021/09/24 04:32:58;;;;;;;;;;;13.10;99.90;;;;;;5075422;28;19934;-89
2021/09/24 04:35:25;;;;;;;;;;;13.10;99.90;;;;;;5075476;28;19931;-88
2021/09/24 04:37:52;;;;;;;;;;;13.10;99.90;;;;;;5075335;28;20002;-88
2021/09/24 04:40:19;;;;;;;;;;;13.10;99.90;;;;;;5075362;28;19934;-88
2021/09/24 04:42:46;;;;;;;;;;;13.10;99.90;;;;;;5075565;28;19924;-88
2021/09/24 04:45:13;;;;;;;;;;;13.10;99.90;;;;;;5075496;28;19924;-87
2021/09/24 04:47:41;;;;;;;;;;;13.10;99.90;;;;;;5075394;28;19925;-87
2021/09/24 04:50:08;;;;;;;;;;;13.10;99.90;;;;;;5075207;28;19943;-87
2021/09/24 04:52:37;;;;;;;;;;;13.20;99.90;;;;;;5075467;28;19925;-88
2021/09/24 04:55:04;;;;;;;;;;;13.20;99.90;;;;;;5075144;28;19936;-87
2021/09/24 04:57:31;;;;;;;;;;;13.20;99.90;;;;;;5075409;28;19924;-88
2021/09/24 04:59:59;;;;;;;;;;;13.20;99.90;;;;;;5075450;28;19935;-88
2021/09/24 05:02:27;;;;;;;;;;;13.20;99.90;;;;;;5075290;28;19934;-89
2021/09/24 05:04:57;;;;;;;;;;;13.20;99.90;;;;;;5075507;28;19934;-88
2021/09/24 05:07:23;;;;;;;;;;;13.20;99.90;;;;;;5075314;28;19936;-88
2021/09/24 05:09:52;;;;;;;;;;;13.10;99.90;;;;;;5075141;28;19925;-87
2021/09/24 05:12:20;;;;;;;;;;;13.20;99.90;;;;;;5076098;28;20370;-88
2021/09/24 05:14:48;;;;;;;;;;;13.10;99.90;;;;;;5079265;28;19932;-88
2021/09/24 05:17:17;;;;;;;;;;;13.20;99.90;;;;;;5078929;28;19925;-87
2021/09/24 05:19:45;;;;;;;;;;;13.20;99.90;;;;;;5079045;28;20351;-87
2021/09/24 05:22:22;;;;;;;;;;;13.20;99.90;;;;;;5079190;28;19935;-88
2021/09/24 05:24:51;;;;;;;;;;;13.10;99.90;;;;;;5078843;28;19939;-86
2021/09/24 05:27:21;;;;;;;;;;;13.20;99.90;;;;;;5078850;28;19935;-87
2021/09/24 05:29:49;;;;;;;;;;;13.20;99.90;;;;;;5078758;28;19934;-88
2021/09/24 05:32:19;;;;;;;;;;;13.20;99.90;;;;;;5069794;28;19924;-88
2021/09/24 05:34:46;;;;;;;;;;;13.20;99.90;;;;;;5078739;28;19932;-88
2021/09/24 05:37:16;;;;;;;;;;;13.20;99.90;;;;;;5078658;28;19924;-88
2021/09/24 05:39:44;;;;;;;;;;;13.20;99.90;;;;;;5078363;28;20269;-88
2021/09/24 05:42:13;;;;;;;;;;;13.20;99.90;;;;;;5078322;28;19924;-88
2021/09/24 05:44:42;;;;;;;;;;;13.20;99.90;;;;;;5078705;28;20315;-88
2021/09/24 05:47:11;;;;;;;;;;;13.20;99.90;;;;;;5078452;28;19934;-88
2021/09/24 05:49:38;;;;;;;;;;;13.20;99.90;;;;;;5078613;28;19924;-89
2021/09/24 05:52:07;;;;;;;;;;;13.20;99.90;;;;;;5078380;28;19935;-89
2021/09/24 05:54:36;;;;;;;;;;;13.10;99.90;;;;;;5078562;28;19931;-89
2021/09/24 05:57:05;;;;;;;;;;;13.10;99.90;;;;;;5078431;28;20264;-88
2021/09/24 05:59:31;;;;;;;;;;;13.10;99.90;;;;;;5078456;28;19934;-88
2021/09/24 06:01:58;;;;;;;;;;;13.20;99.90;;;;;;5078301;28;19933;-89
2021/09/24 06:04:25;;;;;;;;;;;13.20;99.90;;;;;;5078650;28;19924;-89
2021/09/24 06:06:53;;;;;;;;;;;13.20;99.90;;;;;;5078158;28;19931;-89
2021/09/24 06:09:21;;;;;;;;;;;13.20;99.90;;;;;;5078227;28;20364;-88
2021/09/24 06:11:54;;;;;;;;;;;13.20;99.90;;;;;;5078258;28;19935;-89
2021/09/24 06:14:22;;;;;;;;;;;13.20;99.90;;;;;;5078024;28;19935;-89
2021/09/24 06:16:51;;;;;;;;;;;13.30;99.90;;;;;;5078252;28;19935;-89
2021/09/24 06:19:19;;;;;;;;;;;13.20;99.90;;;;;;5078147;28;19924;-89
2021/09/24 06:21:47;;;;;;;;;;;13.20;99.90;;;;;;5077871;28;20380;-89
2021/09/24 06:24:16;;;;;;;;;;;13.30;99.90;;;;;;5076792;28;20279;-88
2021/09/24 06:26:43;;;;;;;;;;;13.30;99.90;;;;;;5077704;28;19924;-89
2021/09/24 06:29:13;;;;;;;;;;;13.30;99.90;;;;;;5078041;28;19935;-88
2021/09/24 06:31:44;;;;;;;;;;;13.30;99.90;;;;;;5077714;28;19924;-89
2021/09/24 06:34:14;;;;;;;;;;;13.40;99.90;;;;;;5077419;28;19947;-88
2021/09/24 06:36:42;;;;;;;;;;;13.40;99.90;;;;;;5077487;28;19934;-89
2021/09/24 06:39:10;;;;;;;;;;;13.40;99.90;;;;;;5077877;28;19942;-89
2021/09/24 06:41:40;;;;;;;;;;;13.40;99.90;;;;;;5077617;28;19943;-89
2021/09/24 06:44:11;;;;;;;;;;;13.40;99.90;;;;;;5077378;28;20222;-89
2021/09/24 06:46:41;;;;;;;;;;;13.40;99.90;;;;;;5077048;28;20271;-87
2021/09/24 06:49:09;;;;;;;;;;;13.40;99.90;;;;;;5077627;28;19925;-88
2021/09/24 06:51:37;;;;;;;;;;;13.40;99.90;;;;;;5077300;28;19974;-87
2021/09/24 06:54:05;;;;;;;;;;;13.50;99.90;;;;;;5077047;28;19924;-88
2021/09/24 06:56:32;;;;;;;;;;;13.50;99.90;;;;;;5077067;28;20272;-88
2021/09/24 06:59:00;;;;;;;;;;;13.50;99.90;;;;;;5077113;28;19939;-88
2021/09/24 07:01:28;;;;;;;;;;;13.50;99.90;;;;;;5077046;28;19925;-88
2021/09/24 07:04:05;;;;;;;;;;;13.50;99.90;;;;;;5077413;28;20273;-88
2021/09/24 07:06:33;;;;;;;;;;;13.50;99.90;;;;;;5076998;28;19964;-88
2021/09/24 07:09:02;;;;;;;;;;;13.60;99.90;;;;;;5077044;28;20255;-87
2021/09/24 07:11:30;;;;;;;;;;;13.60;99.90;;;;;;5076571;28;19935;-88
2021/09/24 07:13:58;;;;;;;;;;;13.70;99.90;;;;;;5076728;28;20359;-88
2021/09/24 07:16:26;;;;;;;;;;;13.70;99.90;;;;;;5076722;28;19925;-88
2021/09/24 07:18:54;;;;;;;;;;;13.80;99.90;;;;;;5076883;28;19924;-87
2021/09/24 07:21:24;;;;;;;;;;;13.80;99.90;;;;;;5076848;28;19961;-88
2021/09/24 07:23:53;;;;;;;;;;;13.80;99.90;;;;;;5076926;28;19924;-88
2021/09/24 07:26:21;;;;;;;;;;;13.80;99.90;;;;;;5076373;28;19936;-88
2021/09/24 07:28:48;;;;;;;;;;;13.90;99.90;;;;;;5076671;28;19950;-88
2021/09/24 07:31:17;;;;;;;;;;;13.90;99.90;;;;;;5076653;28;19924;-88
2021/09/24 07:33:43;;;;;;;;;;;13.90;99.90;;;;;;5076384;28;19935;-88
2021/09/24 07:36:12;;;;;;;;;;;13.90;99.90;;;;;;5076406;28;19924;-88
2021/09/24 07:38:41;;;;;;;;;;;13.90;99.90;;;;;;5076474;28;19936;-89
2021/09/24 07:41:11;;;;;;;;;;;13.90;99.90;;;;;;5075621;28;20128;-90
2021/09/24 07:43:40;;;;;;;;;;;13.90;99.90;;;;;;5076271;28;20349;-89
2021/09/24 07:46:08;;;;;;;;;;;13.90;99.90;;;;;;5076545;28;19935;-89
2021/09/24 07:48:35;;;;;;;;;;;13.90;99.90;;;;;;5076357;28;19935;-89
2021/09/24 07:51:03;;;;;;;;;;;13.90;99.90;;;;;;5075770;28;20348;-89
2021/09/24 07:53:32;;;;;;;;;;;14.00;99.90;;;;;;5076184;28;20349;-89
2021/09/24 07:56:02;;;;;;;;;;;14.10;99.90;;;;;;5075860;28;19928;-89
2021/09/24 07:58:29;;;;;;;;;;;14.10;99.90;;;;;;5075984;28;20366;-89
2021/09/24 08:00:58;;;;;;;;;;;14.20;99.90;;;;;;5075947;28;20329;-89
2021/09/24 08:03:26;;;;;;;;;;;14.30;99.90;;;;;;5076061;28;19925;-88
2021/09/24 08:05:54;;;;;;;;;;;14.30;99.90;;;;;;5075816;28;20340;-89
2021/09/24 08:08:22;;;;;;;;;;;14.40;99.90;;;;;;5075377;28;20249;-88
2021/09/24 08:10:51;;;;;;;;;;;14.40;99.90;;;;;;5075592;28;19928;-88
2021/09/24 08:13:20;;;;;;;;;;;14.50;99.90;;;;;;5075926;28;20256;-88
2021/09/24 08:15:48;;;;;;;;;;;14.30;99.90;;;;;;5075672;28;19931;-88
2021/09/24 08:18:17;;;;;;;;;;;14.60;99.90;;;;;;5075607;28;19925;-88
2021/09/24 08:20:44;;;;;;;;;;;14.70;99.90;;;;;;5075750;28;19958;-88
2021/09/24 08:23:13;;;;;;;;;;;14.80;99.90;;;;;;5075555;28;20260;-88
2021/09/24 08:25:41;;;;;;;;;;;14.80;99.90;;;;;;5075189;28;19929;-88
2021/09/24 08:28:08;;;;;;;;;;;14.70;99.90;;;;;;5075335;28;20349;-88
2021/09/24 08:30:37;;;;;;;;;;;14.80;99.90;;;;;;5075178;28;19925;-88
2021/09/24 08:33:05;;;;;;;;;;;14.80;99.90;;;;;;5075186;28;19924;-88
2021/09/24 08:35:34;;;;;;;;;;;14.90;99.90;;;;;;5075275;28;20357;-87
2021/09/24 08:38:02;;;;;;;;;;;14.80;99.90;;;;;;5075148;28;19924;-88
2021/09/24 08:40:31;;;;;;;;;;;14.90;99.90;;;;;;5075481;28;19924;-88
2021/09/24 08:42:59;;;;;;;;;;;14.90;99.90;;;;;;5075243;28;20341;-88
2021/09/24 08:45:27;;;;;;;;;;;14.90;99.90;;;;;;5075099;28;19950;-88
2021/09/24 08:47:56;;;;;;;;;;;14.90;99.90;;;;;;5074665;28;20318;-87
2021/09/24 08:50:23;;;;;;;;;;;14.90;99.90;;;;;;5075180;28;19924;-88
2021/09/24 08:52:50;;;;;;;;;;;14.90;99.90;;;;;;5074789;28;19928;-88
2021/09/24 08:55:17;;;;;;;;;;;15.00;99.90;;;;;;5075334;28;20311;-88
2021/09/24 08:57:43;;;;;;;;;;;15.00;99.90;;;;;;5075055;28;19931;-88
2021/09/24 09:00:11;;;;;;;;;;;15.10;99.90;;;;;;5075197;28;19938;-88
2021/09/24 09:02:53;;;;;;;;;;;15.10;99.90;;;;;;5075038;28;19939;-88
2021/09/24 09:05:22;;;;;;;;;;;15.10;99.90;;;;;;5075280;28;19928;-88
2021/09/24 09:07:49;;;;;;;;;;;15.10;99.90;;;;;;5075021;28;20267;-88
2021/09/24 09:10:15;;;;;;;;;;;15.20;99.90;;;;;;5074962;28;19924;-87
2021/09/24 09:12:42;;;;;;;;;;;15.20;99.90;;;;;;5074831;28;19935;-88
2021/09/24 09:15:10;;;;;;;;;;;15.20;99.90;;;;;;5075085;28;19924;-88
2021/09/24 09:17:37;;;;;;;;;;;15.20;99.90;;;;;;5074785;28;19924;-88
2021/09/24 09:20:22;;;;;;;;;;;15.10;99.90;;;;;;5074782;28;19925;-88
2021/09/24 09:22:51;;;;;;;;;;;15.20;99.90;;;;;;5075057;28;19924;-88
2021/09/24 09:25:25;;;;;;;;;;;15.20;99.90;;;;;;5074715;28;20256;-87
2021/09/24 09:27:52;;;;;;;;;;;15.20;99.90;;;;;;5075044;28;19924;-89
2021/09/24 09:30:19;;;;;;;;;;;15.10;99.90;;;;;;5074669;28;19928;-89
2021/09/24 09:32:47;;;;;;;;;;;15.10;99.90;;;;;;5074929;28;20337;-88
2021/09/24 09:35:13;;;;;;;;;;;15.10;99.90;;;;;;5075007;28;20345;-89
2021/09/24 09:37:40;;;;;;;;;;;15.00;99.90;;;;;;5074896;28;20384;-89
2021/09/24 09:40:10;;;;;;;;;;;15.00;99.90;;;;;;5074958;28;19925;-90
2021/09/24 09:42:38;;;;;;;;;;;15.00;99.90;;;;;;5075105;28;19942;-92
2021/09/24 09:45:06;;;;;;;;;;;15.00;99.90;;;;;;5075110;28;19925;-92
2021/09/24 09:47:33;;;;;;;;;;;15.10;99.90;;;;;;5075078;28;19924;-91
2021/09/24 09:50:07;;;;;;;;;;;15.00;99.90;;;;;;5074922;28;19930;-90
2021/09/24 09:52:34;;;;;;;;;;;15.10;99.90;;;;;;5074802;28;20354;-89
2021/09/24 09:55:02;;;;;;;;;;;15.10;99.90;;;;;;5074755;28;19997;-89
2021/09/24 09:57:34;;;;;;;;;;;15.20;99.90;;;;;;5074506;28;19924;-89
2021/09/24 10:00:01;;;;;;;;;;;15.30;99.90;;;;;;5078311;28;19928;-89
2021/09/24 10:02:29;;;;;;;;;;;15.30;99.90;;;;;;5078334;28;19934;-89
2021/09/24 10:04:57;;;;;;;;;;;15.40;99.90;;;;;;5078472;28;19924;-90
2021/09/24 10:07:24;;;;;;;;;;;15.50;99.90;;;;;;5078058;28;19932;-89
2021/09/24 10:10:02;;;;;;;;;;;15.50;99.90;;;;;;5077979;28;19938;-88
2021/09/24 10:12:30;;;;;;;;;;;15.60;99.90;;;;;;5077831;28;19924;-88
2021/09/24 10:14:57;;;;;;;;;;;15.70;99.90;;;;;;5078188;28;19936;-89
2021/09/24 10:17:24;;;;;;;;;;;15.70;99.90;;;;;;5077831;28;20127;-88
2021/09/24 10:19:51;;;;;;;;;;;15.70;99.90;;;;;;5077868;28;19928;-88
2021/09/24 10:22:18;;;;;;;;;;;15.80;99.90;;;;;;5077780;28;19925;-88
2021/09/24 10:24:44;;;;;;;;;;;15.90;99.90;;;;;;5077744;28;19924;-88
2021/09/24 10:27:12;;;;;;;;;;;15.90;99.90;;;;;;5077475;28;19935;-88
2021/09/24 10:29:42;;;;;;;;;;;15.90;99.90;;;;;;5077925;28;19935;-88
2021/09/24 10:32:12;;;;;;;;;;;16.00;99.90;;;;;;5077375;28;19925;-88
2021/09/24 10:34:51;;;;;;;;;;;16.00;99.90;;;;;;5077518;28;20337;-88
2021/09/24 10:37:18;;;;;;;;;;;16.10;99.90;;;;;;5077767;28;19924;-88
2021/09/24 10:39:47;;;;;;;;;;;16.10;99.90;;;;;;5077314;28;20419;-88
2021/09/24 10:42:18;;;;;;;;;;;16.10;99.90;;;;;;5077380;28;19925;-88
2021/09/24 10:44:58;;;;;;;;;;;16.10;99.90;;;;;;5077458;28;19934;-87
2021/09/24 10:47:39;;;;;;;;;;;16.10;99.90;;;;;;5077340;28;19924;-87
2021/09/24 10:50:18;;;;;;;;;;;16.10;99.90;;;;;;5076744;28;20003;-88
2021/09/24 10:52:45;;;;;;;;;;;16.20;99.90;;;;;;5075811;28;19939;-88
2021/09/24 10:55:12;;;;;;;;;;;16.20;99.90;;;;;;5077003;28;19931;-88
2021/09/24 10:57:49;;;;;;;;;;;16.20;99.90;;;;;;5077110;28;19925;-88
2021/09/24 11:00:27;;;;;;;;;;;16.20;99.90;;;;;;5077059;28;19989;-88
2021/09/24 11:03:06;;;;;;;;;;;16.20;99.90;;;;;;5076922;28;19924;-88
2021/09/24 11:05:48;;;;;;;;;;;16.30;99.90;;;;;;5076845;28;19964;-87
2021/09/24 11:08:30;;;;;;;;;;;16.30;99.90;;;;;;5076491;28;19924;-88
2021/09/24 11:11:03;;;;;;;;;;;16.40;99.90;;;;;;5075798;28;20246;-88
2021/09/24 11:13:30;;;;;;;;;;;16.40;99.90;;;;;;5076764;28;19978;-88
2021/09/24 11:16:01;;;;;;;;;;;16.40;99.90;;;;;;5076997;28;19925;-89
2021/09/24 11:18:43;;;;;;;;;;;16.40;99.90;;;;;;5076594;28;19935;-89
2021/09/24 11:21:10;;;;;;;;;;;16.50;99.90;;;;;;5075950;28;19924;-88
2021/09/24 11:23:37;;;;;;;;;;;16.60;99.90;;;;;;5076611;28;19931;-89
2021/09/24 11:26:07;;;;;;;;;;;16.60;99.90;;;;;;5076402;28;19925;-89
2021/09/24 11:28:34;;;;;;;;;;;16.60;99.90;;;;;;5076808;28;19938;-89
2021/09/24 11:31:02;;;;;;;;;;;16.70;99.90;;;;;;5076796;28;19925;-88
2021/09/24 11:33:39;;;;;;;;;;;16.70;99.90;;;;;;5076298;28;19924;-88
2021/09/24 11:36:06;;;;;;;;;;;16.80;99.90;;;;;;5076551;28;20025;-88
2021/09/24 11:38:32;;;;;;;;;;;16.80;99.90;;;;;;5076343;28;20348;-88
2021/09/24 11:40:59;;;;;;;;;;;16.80;99.90;;;;;;5076265;28;20348;-89
2021/09/24 11:43:27;;;;;;;;;;;16.80;99.90;;;;;;5076531;28;19935;-90
2021/09/24 11:45:56;;;;;;;;;;;16.90;99.90;;;;;;5076741;28;19924;-90
2021/09/24 11:48:39;;;;;;;;;;;16.90;99.90;;;;;;5076252;28;20348;-89
2021/09/24 11:51:13;;;;;;;;;;;17.00;99.90;;;;;;5076529;28;19980;-89
2021/09/24 11:53:48;;;;;;;;;;;17.00;99.90;;;;;;5076119;28;19924;-89
2021/09/24 11:56:20;;;;;;;;;;;17.00;99.90;;;;;;5074356;28;19931;-88
2021/09/24 11:59:02;;;;;;;;;;;17.20;99.90;;;;;;5076008;28;19928;-87
2021/09/24 12:01:30;;;;;;;;;;;17.30;99.90;;;;;;5075963;28;19932;-86
2021/09/24 12:04:00;;;;;;;;;;;17.50;99.90;;;;;;5075841;28;20279;-86
2021/09/24 12:06:29;;;;;;;;;;;17.70;99.90;;;;;;5075478;28;20370;-85
2021/09/24 12:09:02;;;;;;;;;;;17.80;99.90;;;;;;5075886;28;19944;-85
2021/09/24 12:11:33;;;;;;;;;;;18.00;99.90;;;;;;5075557;28;20288;-85
2021/09/24 12:14:02;;;;;;;;;;;18.10;99.90;;;;;;5075311;28;19935;-84
2021/09/24 12:16:33;;;;;;;;;;;18.20;99.90;;;;;;5075713;28;19932;-85
2021/09/24 12:19:03;;;;;;;;;;;18.20;99.90;;;;;;5075689;28;20028;-85
2021/09/24 12:21:48;;;;;;;;;;;18.20;99.90;;;;;;5050714;28;19929;-85
2021/09/24 12:24:18;;;;;;;;;;;18.30;99.90;;;;;;5055425;28;19932;-86
2021/09/24 12:26:46;;;;;;;;;;;18.30;99.90;;;;;;5054989;28;19931;-85
2021/09/24 12:29:17;;;;;;;;;;;18.30;99.90;;;;;;5055398;28;19924;-85
2021/09/24 12:31:46;;;;;;;;;;;18.30;99.90;;;;;;5055391;28;19935;-84
2021/09/24 12:34:17;;;;;;;;;;;18.40;99.90;;;;;;5055083;28;19924;-84
2021/09/24 12:36:52;;;;;;;;;;;18.50;99.90;;;;;;5055699;28;19925;-84
2021/09/24 12:39:21;;;;;;;;;;;18.50;99.90;;;;;;5055238;28;19925;-84
2021/09/24 12:41:49;;;;;;;;;;;18.50;99.90;;;;;;5054965;28;20416;-84
2021/09/24 12:44:17;;;;;;;;;;;18.50;99.90;;;;;;5055071;28;19931;-84
2021/09/24 12:46:45;;;;;;;;;;;18.50;99.90;;;;;;5054879;28;19924;-84
2021/09/24 12:49:13;;;;;;;;;;;18.50;99.90;;;;;;5054829;28;19925;-83
2021/09/24 12:51:42;;;;;;;;;;;18.70;99.90;;;;;;5055231;28;19935;-83
2021/09/24 12:54:12;;;;;;;;;;;18.70;99.90;;;;;;5054843;28;19943;-83
2021/09/24 12:56:40;;;;;;;;;;;18.80;99.90;;;;;;5054801;28;19937;-83
2021/09/24 12:59:07;;;;;;;;;;;18.90;99.90;;;;;;5054777;28;19925;-83
2021/09/24 13:01:35;;;;;;;;;;;18.90;99.90;;;;;;5054807;28;20003;-83
2021/09/24 13:04:02;;;;;;;;;;;18.80;99.90;;;;;;5054708;28;20284;-83
2021/09/24 13:06:29;;;;;;;;;;;18.90;99.90;;;;;;5054799;28;20380;-83
2021/09/24 13:08:57;;;;;;;;;;;18.90;99.90;;;;;;5054462;28;20376;-83
2021/09/24 13:11:25;;;;;;;;;;;18.90;99.90;;;;;;5054565;28;20349;-82
2021/09/24 13:13:52;;;;;;;;;;;19.00;99.90;;;;;;5054246;28;19925;-83
2021/09/24 13:16:19;;;;;;;;;;;19.10;99.90;;;;;;5054700;28;20372;-83
2021/09/24 13:18:46;;;;;;;;;;;19.10;99.90;;;;;;5054838;28;19978;-82
2021/09/24 13:21:15;;;;;;;;;;;19.20;99.90;;;;;;5054850;28;19929;-82
2021/09/24 13:23:45;;;;;;;;;;;19.20;99.90;;;;;;5054572;28;19933;-82
2021/09/24 13:26:13;;;;;;;;;;;19.30;99.90;;;;;;5054436;28;19929;-82
2021/09/24 13:28:40;;;;;;;;;;;19.20;99.90;;;;;;5054575;28;19925;-82
2021/09/24 13:31:07;;;;;;;;;;;19.30;99.90;;;;;;5054690;28;19935;-82
2021/09/24 13:33:34;;;;;;;;;;;19.30;99.90;;;;;;5056190;28;19924;-82
2021/09/24 13:36:01;;;;;;;;;;;19.30;99.90;;;;;;5058705;28;19935;-82
2021/09/24 13:38:27;;;;;;;;;;;19.30;99.90;;;;;;5057883;28;19925;-82
2021/09/24 13:40:56;;;;;;;;;;;19.30;99.90;;;;;;5057819;28;19925;-82
2021/09/24 13:43:37;;;;;;;;;;;19.30;99.90;;;;;;5058301;28;19939;-82
2021/09/24 13:46:06;;;;;;;;;;;19.40;99.90;;;;;;5058438;28;20371;-81
2021/09/24 13:48:35;;;;;;;;;;;19.50;99.90;;;;;;5058344;28;20356;-82
2021/09/24 13:51:04;;;;;;;;;;;19.60;99.90;;;;;;5058327;28;19928;-82
2021/09/24 13:53:32;;;;;;;;;;;19.60;99.90;;;;;;5058186;28;19935;-82
2021/09/24 13:56:00;;;;;;;;;;;19.60;99.90;;;;;;5058164;28;20361;-82
2021/09/24 13:58:30;;;;;;;;;;;19.60;99.90;;;;;;5058347;28;20018;-82
2021/09/24 14:00:57;;;;;;;;;;;19.60;99.90;;;;;;5058248;28;19932;-82
2021/09/24 14:03:23;;;;;;;;;;;19.60;99.90;;;;;;5058243;28;19931;-82
2021/09/24 14:05:51;;;;;;;;;;;19.70;99.90;;;;;;5057711;28;19935;-81
2021/09/24 14:08:19;;;;;;;;;;;19.80;99.90;;;;;;5056985;28;19979;-81
2021/09/24 14:10:48;;;;;;;;;;;19.80;99.90;;;;;;5058128;28;19924;-82
2021/09/24 14:13:15;;;;;;;;;;;19.90;99.90;;;;;;5058014;28;19935;-83
2021/09/24 14:15:44;;;;;;;;;;;19.90;99.90;;;;;;5057903;28;20276;-81
2021/09/24 14:18:13;;;;;;;;;;;20.00;99.90;;;;;;5057934;28;19924;-82
2021/09/24 14:20:39;;;;;;;;;;;20.00;99.90;;;;;;5057650;28;19924;-83
2021/09/24 14:23:08;;;;;;;;;;;19.90;99.90;;;;;;5057955;28;19924;-81
2021/09/24 14:25:36;;;;;;;;;;;20.00;99.90;;;;;;5057865;28;19978;-81